Time;durP1;ratioP1;P1;durP2;ratioP2;P2;SDS_P1;SDS_P2;PMS_P1;PMS_P2;Temp;Humidity;BMP_temperature;BMP_pressure;BME280_temperature;BME280_humidity;BME280_pressure;Samples;Min_cycle;Max_cycle;Signal;HPM_P1;HPM_P2
2023/07/19 00:00:43;;;;;;;4.07;3.03;;;;;;;;;;5038853;28;20054;-59
2023/07/19 00:03:09;;;;;;;5.45;2.70;;;;;;;;;;5061266;28;20044;-58
2023/07/19 00:05:36;;;;;;;4.00;2.70;;;;;;;;;;5056558;28;20049;-60
2023/07/19 00:08:04;;;;;;;6.13;2.38;;;;;;;;;;5054803;28;20433;-59
2023/07/19 00:10:32;;;;;;;4.10;2.45;;;;;;;;;;5057035;28;20060;-60
2023/07/19 00:12:59;;;;;;;3.88;2.38;;;;;;;;;;5058576;28;20106;-60
2023/07/19 00:15:26;;;;;;;5.50;2.65;;;;;;;;;;5058545;28;20486;-59
2023/07/19 00:17:52;;;;;;;5.50;2.83;;;;;;;;;;5054564;28;20049;-60
2023/07/19 00:20:19;;;;;;;3.38;2.67;;;;;;;;;;5058086;28;20060;-60
2023/07/19 00:22:46;;;;;;;4.00;2.80;;;;;;;;;;5071367;28;20148;-60
2023/07/19 00:25:13;;;;;;;4.20;2.83;;;;;;;;;;5078509;28;20052;-60
2023/07/19 00:27:41;;;;;;;5.18;2.90;;;;;;;;;;5074945;28;20162;-60
2023/07/19 00:30:08;;;;;;;5.45;2.80;;;;;;;;;;5075049;28;20048;-60
2023/07/19 00:32:35;;;;;;;5.57;3.10;;;;;;;;;;5070184;28;20052;-60
2023/07/19 00:35:02;;;;;;;6.78;2.80;;;;;;;;;;5074753;28;20088;-60
2023/07/19 00:37:29;;;;;;;4.88;3.10;;;;;;;;;;5057998;28;20053;-60
2023/07/19 00:39:56;;;;;;;3.47;2.47;;;;;;;;;;5055088;28;20056;-60
2023/07/19 00:42:23;;;;;;;4.80;3.38;;;;;;;;;;5069211;28;20051;-60
2023/07/19 00:44:51;;;;;;;5.00;2.58;;;;;;;;;;5074397;28;20053;-58
2023/07/19 00:47:18;;;;;;;4.03;2.58;;;;;;;;;;5058793;28;20059;-60
2023/07/19 00:49:45;;;;;;;5.72;2.50;;;;;;;;;;5053795;28;20053;-59
2023/07/19 00:52:12;;;;;;;3.42;2.58;;;;;;;;;;5060854;28;20083;-60
2023/07/19 00:54:39;;;;;;;4.82;2.92;;;;;;;;;;5074054;28;20057;-60
2023/07/19 00:57:06;;;;;;;4.88;2.78;;;;;;;;;;5073199;28;20059;-60
2023/07/19 00:59:34;;;;;;;5.30;2.92;;;;;;;;;;5074139;28;20052;-60
2023/07/19 01:02:02;;;;;;;6.70;3.10;;;;;;;;;;5052177;28;20049;-60
2023/07/19 01:04:29;;;;;;;5.55;2.78;;;;;;;;;;5034440;28;20049;-60
2023/07/19 01:06:56;;;;;;;6.70;2.65;;;;;;;;;;5040149;28;20401;-59
2023/07/19 01:09:24;;;;;;;4.32;2.53;;;;;;;;;;5074593;28;20409;-59
2023/07/19 01:11:50;;;;;;;5.63;3.13;;;;;;;;;;5073055;28;20048;-60
2023/07/19 01:14:17;;;;;;;4.57;2.90;;;;;;;;;;5074453;28;20056;-60
2023/07/19 01:16:44;;;;;;;4.43;2.67;;;;;;;;;;5061738;28;20494;-60
2023/07/19 01:19:15;;;;;;;3.50;2.65;;;;;;;;;;5053792;28;20052;-59
2023/07/19 01:21:42;;;;;;;6.25;3.10;;;;;;;;;;5052463;28;20498;-59
2023/07/19 01:24:10;;;;;;;4.10;2.63;;;;;;;;;;5073279;28;20051;-60
2023/07/19 01:26:37;;;;;;;5.85;3.10;;;;;;;;;;5072436;28;20059;-60
2023/07/19 01:29:04;;;;;;;5.78;3.08;;;;;;;;;;5074257;28;20079;-60
2023/07/19 01:31:31;;;;;;;4.40;2.90;;;;;;;;;;5063925;28;20051;-60
2023/07/19 01:33:58;;;;;;;4.25;3.30;;;;;;;;;;5053734;28;20049;-60
2023/07/19 01:36:26;;;;;;;4.93;2.70;;;;;;;;;;5053553;28;20053;-59
2023/07/19 01:38:52;;;;;;;4.75;3.60;;;;;;;;;;5040080;28;20426;-59
2023/07/19 01:41:21;;;;;;;5.55;2.90;;;;;;;;;;5034005;28;20061;-59
2023/07/19 01:43:48;;;;;;;4.03;2.70;;;;;;;;;;5033950;28;20057;-59
2023/07/19 01:46:14;;;;;;;5.13;2.85;;;;;;;;;;5064037;28;20060;-60
2023/07/19 01:48:41;;;;;;;4.35;2.95;;;;;;;;;;5053972;28;20049;-60
2023/07/19 01:51:08;;;;;;;4.53;3.05;;;;;;;;;;5039560;28;20486;-60
2023/07/19 01:53:35;;;;;;;3.97;3.20;;;;;;;;;;5055181;28;20056;-60
2023/07/19 01:56:02;;;;;;;4.63;3.22;;;;;;;;;;5073464;28;20409;-59
2023/07/19 01:58:30;;;;;;;4.55;3.25;;;;;;;;;;5072981;28;20063;-60
2023/07/19 02:00:56;;;;;;;4.65;3.13;;;;;;;;;;5067284;28;20048;-60
2023/07/19 02:03:23;;;;;;;5.82;3.50;;;;;;;;;;5050254;28;20391;-59
2023/07/19 02:05:56;;;;;;;5.50;3.25;;;;;;;;;;5053941;28;20053;-59
2023/07/19 02:08:23;;;;;;;3.83;2.88;;;;;;;;;;5057947;28;20059;-60
2023/07/19 02:10:50;;;;;;;5.07;2.80;;;;;;;;;;5063388;28;20060;-60
2023/07/19 02:13:17;;;;;;;3.85;2.92;;;;;;;;;;5044671;28;20068;-60
2023/07/19 02:15:45;;;;;;;5.10;2.78;;;;;;;;;;5033168;28;20076;-60
2023/07/19 02:18:12;;;;;;;4.23;2.90;;;;;;;;;;5046749;28;20053;-60
2023/07/19 02:20:44;;;;;;;6.20;3.08;;;;;;;;;;5052779;28;20049;-60
2023/07/19 02:23:11;;;;;;;4.10;2.70;;;;;;;;;;5052449;28;20375;-60
2023/07/19 02:25:40;;;;;;;5.32;2.83;;;;;;;;;;5072144;28;20052;-60
2023/07/19 02:28:07;;;;;;;3.85;2.88;;;;;;;;;;5052785;28;20064;-59
2023/07/19 02:30:33;;;;;;;6.35;3.10;;;;;;;;;;5050546;28;20055;-59
2023/07/19 02:33:01;;;;;;;5.97;3.00;;;;;;;;;;5053036;28;20410;-60
2023/07/19 02:35:28;;;;;;;4.55;3.38;;;;;;;;;;5052531;28;20055;-60
2023/07/19 02:37:55;;;;;;;4.25;3.05;;;;;;;;;;5051714;28;20056;-60
2023/07/19 02:40:22;;;;;;;8.38;3.55;;;;;;;;;;5033194;28;20053;-60
2023/07/19 02:42:48;;;;;;;4.40;2.90;;;;;;;;;;5032967;28;20406;-59
2023/07/19 02:45:15;;;;;;;4.20;2.88;;;;;;;;;;5033493;28;20103;-59
2023/07/19 02:47:42;;;;;;;6.18;3.45;;;;;;;;;;5051556;28;20056;-59
2023/07/19 02:50:11;;;;;;;6.28;3.83;;;;;;;;;;5052567;28;20064;-59
2023/07/19 02:52:38;;;;;;;4.23;3.03;;;;;;;;;;5039498;28;20076;-59
2023/07/19 02:55:05;;;;;;;5.97;3.30;;;;;;;;;;5072610;28;20494;-59
2023/07/19 02:57:31;;;;;;;7.07;4.28;;;;;;;;;;5072793;28;20409;-59
2023/07/19 02:59:58;;;;;;;8.10;3.00;;;;;;;;;;5072198;28;20052;-59
2023/07/19 03:02:25;;;;;;;4.53;3.35;;;;;;;;;;5056678;28;20053;-59
2023/07/19 03:04:52;;;;;;;4.68;3.28;;;;;;;;;;5052572;28;20049;-59
2023/07/19 03:07:21;;;;;;;4.00;3.10;;;;;;;;;;5052780;28;20490;-60
2023/07/19 03:09:48;;;;;;;4.97;3.45;;;;;;;;;;5050956;28;20055;-59
2023/07/19 03:12:14;;;;;;;6.65;3.20;;;;;;;;;;5052577;28;20063;-59
2023/07/19 03:14:41;;;;;;;5.18;3.30;;;;;;;;;;5052273;28;20072;-59
2023/07/19 03:17:08;;;;;;;5.97;3.03;;;;;;;;;;5050279;28;20057;-59
2023/07/19 03:19:36;;;;;;;4.95;3.20;;;;;;;;;;5052340;28;20053;-60
2023/07/19 03:22:03;;;;;;;4.75;3.20;;;;;;;;;;5052623;28;20053;-59
2023/07/19 03:24:31;;;;;;;5.78;3.50;;;;;;;;;;5051055;28;20049;-60
2023/07/19 03:26:58;;;;;;;6.80;3.20;;;;;;;;;;5052489;28;20056;-59
2023/07/19 03:29:25;;;;;;;5.10;3.35;;;;;;;;;;5052366;28;20441;-59
2023/07/19 03:31:52;;;;;;;4.22;3.10;;;;;;;;;;5043625;28;20072;-59
2023/07/19 03:34:18;;;;;;;7.13;3.40;;;;;;;;;;5051967;28;20048;-59
2023/07/19 03:36:46;;;;;;;4.75;2.95;;;;;;;;;;5052015;28;20060;-59
2023/07/19 03:39:13;;;;;;;4.97;3.53;;;;;;;;;;5042838;28;20053;-59
2023/07/19 03:41:41;;;;;;;5.25;3.60;;;;;;;;;;5032252;28;20054;-59
2023/07/19 03:44:08;;;;;;;5.50;3.70;;;;;;;;;;5032110;28;20053;-59
2023/07/19 03:46:35;;;;;;;6.45;3.97;;;;;;;;;;5039211;28;20048;-59
2023/07/19 03:49:01;;;;;;;6.65;3.67;;;;;;;;;;5051618;28;20061;-59
2023/07/19 03:51:28;;;;;;;5.45;3.35;;;;;;;;;;5052054;28;20060;-59
2023/07/19 03:53:55;;;;;;;7.40;3.28;;;;;;;;;;5047190;28;20049;-60
2023/07/19 03:56:22;;;;;;;7.53;3.75;;;;;;;;;;5031903;28;20053;-60
2023/07/19 03:58:50;;;;;;;4.97;3.38;;;;;;;;;;5032327;28;20387;-59
2023/07/19 04:01:17;;;;;;;7.38;3.40;;;;;;;;;;5041121;28;20056;-59
2023/07/19 04:03:44;;;;;;;5.57;3.05;;;;;;;;;;5034963;28;20061;-60
2023/07/19 04:06:11;;;;;;;4.78;2.97;;;;;;;;;;5035595;28;20061;-60
2023/07/19 04:08:38;;;;;;;5.65;3.50;;;;;;;;;;5036072;28;20049;-59
2023/07/19 04:11:04;;;;;;;4.65;3.60;;;;;;;;;;5036858;28;20418;-59
2023/07/19 04:13:31;;;;;;;8.10;3.53;;;;;;;;;;5040570;28;20049;-58
2023/07/19 04:15:59;;;;;;;10.48;4.20;;;;;;;;;;5056504;28;20064;-58
2023/07/19 04:18:26;;;;;;;6.93;3.45;;;;;;;;;;5054857;28;20057;-58
2023/07/19 04:20:56;;;;;;;6.53;3.70;;;;;;;;;;5055773;28;20089;-59
2023/07/19 04:23:23;;;;;;;4.93;3.10;;;;;;;;;;5055336;28;20049;-58
2023/07/19 04:25:50;;;;;;;5.78;3.15;;;;;;;;;;5068502;28;20052;-59
2023/07/19 04:28:17;;;;;;;6.03;3.22;;;;;;;;;;5055748;28;20061;-60
2023/07/19 04:30:45;;;;;;;7.25;3.72;;;;;;;;;;5058243;28;20421;-59
2023/07/19 04:33:13;;;;;;;5.35;3.67;;;;;;;;;;5051756;28;20044;-59
2023/07/19 04:35:40;;;;;;;8.38;4.30;;;;;;;;;;5065356;28;20054;-59
2023/07/19 04:38:06;;;;;;;5.93;4.05;;;;;;;;;;5054408;28;20056;-59
2023/07/19 04:40:33;;;;;;;9.20;4.20;;;;;;;;;;5055746;28;20075;-60
2023/07/19 04:43:01;;;;;;;6.03;3.63;;;;;;;;;;5073224;28;20052;-59
2023/07/19 04:45:30;;;;;;;6.18;3.67;;;;;;;;;;5053785;28;20072;-59
2023/07/19 04:47:56;;;;;;;4.68;3.08;;;;;;;;;;5054659;28;20053;-59
2023/07/19 04:50:25;;;;;;;4.53;3.17;;;;;;;;;;5054469;28;20076;-59
2023/07/19 04:52:51;;;;;;;5.88;3.55;;;;;;;;;;5054518;28;20057;-58
2023/07/19 04:55:18;;;;;;;5.68;3.70;;;;;;;;;;5054516;28;20056;-59
2023/07/19 04:57:45;;;;;;;5.25;3.88;;;;;;;;;;5071615;28;20053;-59
2023/07/19 05:00:13;;;;;;;5.13;3.70;;;;;;;;;;5074337;28;20052;-58
2023/07/19 05:02:40;;;;;;;7.78;3.20;;;;;;;;;;5074398;28;20055;-59
2023/07/19 05:05:07;;;;;;;7.00;3.90;;;;;;;;;;5074122;28;20052;-58
2023/07/19 05:07:36;;;;;;;7.97;4.25;;;;;;;;;;5070389;28;20060;-58
2023/07/19 05:10:03;;;;;;;5.13;3.65;;;;;;;;;;5071709;28;20056;-58
2023/07/19 05:12:30;;;;;;;5.38;3.17;;;;;;;;;;5074143;28;20059;-59
2023/07/19 05:14:57;;;;;;;8.05;4.18;;;;;;;;;;5073725;28;20048;-59
2023/07/19 05:17:24;;;;;;;6.72;4.30;;;;;;;;;;5054184;28;20053;-60
2023/07/19 05:19:51;;;;;;;5.03;3.30;;;;;;;;;;5073920;28;20059;-60
2023/07/19 05:22:17;;;;;;;7.38;3.60;;;;;;;;;;5073871;28;20056;-60
2023/07/19 05:24:46;;;;;;;5.47;3.65;;;;;;;;;;5055689;28;20506;-59
2023/07/19 05:27:15;;;;;;;6.45;3.67;;;;;;;;;;5054053;28;20053;-60
2023/07/19 05:29:43;;;;;;;5.85;3.65;;;;;;;;;;5069281;28;20052;-60
2023/07/19 05:32:10;;;;;;;5.38;3.67;;;;;;;;;;5073962;28;20063;-60
2023/07/19 05:34:36;;;;;;;5.20;3.55;;;;;;;;;;5073658;28;20059;-60
2023/07/19 05:37:04;;;;;;;5.75;3.40;;;;;;;;;;5073651;28;20512;-60
2023/07/19 05:39:31;;;;;;;6.95;3.80;;;;;;;;;;5069287;28;20075;-60
2023/07/19 05:42:00;;;;;;;6.18;3.78;;;;;;;;;;5074082;28;20052;-60
2023/07/19 05:44:26;;;;;;;4.97;3.72;;;;;;;;;;5063210;28;20056;-60
2023/07/19 05:46:54;;;;;;;5.70;3.90;;;;;;;;;;5063579;28;20053;-60
2023/07/19 05:49:21;;;;;;;5.70;3.80;;;;;;;;;;5051361;28;20057;-60
2023/07/19 05:51:48;;;;;;;5.43;3.10;;;;;;;;;;5051221;28;20078;-60
2023/07/19 05:54:15;;;;;;;5.72;3.53;;;;;;;;;;5068141;28;20052;-60
2023/07/19 05:56:43;;;;;;;6.10;3.28;;;;;;;;;;5054006;28;20114;-60
2023/07/19 05:59:12;;;;;;;6.43;3.70;;;;;;;;;;5050788;28;20048;-60
2023/07/19 06:01:38;;;;;;;6.50;3.60;;;;;;;;;;5056560;28;20060;-60
2023/07/19 06:04:06;;;;;;;6.78;3.80;;;;;;;;;;5072985;28;20056;-60
2023/07/19 06:06:34;;;;;;;5.35;3.35;;;;;;;;;;5053314;28;20044;-58
2023/07/19 06:09:05;;;;;;;4.68;3.65;;;;;;;;;;5068496;28;20059;-61
2023/07/19 06:11:32;;;;;;;5.85;3.45;;;;;;;;;;5073089;28;20056;-60
2023/07/19 06:13:59;;;;;;;6.53;3.70;;;;;;;;;;5072554;28;20059;-60
2023/07/19 06:16:27;;;;;;;9.40;4.10;;;;;;;;;;5058592;28;20440;-60
2023/07/19 06:18:54;;;;;;;6.72;3.80;;;;;;;;;;5050109;28;20060;-60
2023/07/19 06:21:21;;;;;;;10.05;5.80;;;;;;;;;;5052465;28;20049;-60
2023/07/19 06:23:47;;;;;;;7.28;3.60;;;;;;;;;;5070315;28;20067;-60
2023/07/19 06:26:14;;;;;;;7.32;4.00;;;;;;;;;;5047677;28;20462;-60
2023/07/19 06:28:41;;;;;;;9.73;3.97;;;;;;;;;;5051947;28;20049;-60
2023/07/19 06:31:08;;;;;;;4.78;3.53;;;;;;;;;;5041968;28;20056;-60
2023/07/19 06:33:36;;;;;;;5.43;3.33;;;;;;;;;;5047013;28;20057;-60
2023/07/19 06:36:03;;;;;;;6.95;3.88;;;;;;;;;;5050715;28;20060;-60
2023/07/19 06:38:29;;;;;;;5.63;2.80;;;;;;;;;;5051523;28;20060;-59
2023/07/19 06:41:01;;;;;;;5.38;3.33;;;;;;;;;;5050076;28;20079;-59
2023/07/19 06:43:28;;;;;;;10.00;3.30;;;;;;;;;;5046662;28;20060;-41
2023/07/19 06:45:54;;;;;;;4.40;2.88;;;;;;;;;;5047555;28;20061;-38
2023/07/19 06:48:21;;;;;;;5.90;3.40;;;;;;;;;;5046897;28;20053;-38
2023/07/19 06:50:50;;;;;;;6.82;3.17;;;;;;;;;;5052145;28;20072;-38
2023/07/19 06:53:17;;;;;;;6.40;3.13;;;;;;;;;;5050654;28;20091;-39
2023/07/19 06:55:44;;;;;;;6.18;3.25;;;;;;;;;;5041973;28;20052;-39
2023/07/19 06:58:11;;;;;;;4.93;3.20;;;;;;;;;;5040567;28;20056;-38
2023/07/19 07:00:37;;;;;;;7.70;3.30;;;;;;;;;;5044162;28;20053;-38
2023/07/19 07:03:04;;;;;;;6.07;3.28;;;;;;;;;;5045206;28;20057;-38
2023/07/19 07:05:32;;;;;;;7.80;3.45;;;;;;;;;;5045683;28;20056;-38
2023/07/19 07:08:00;;;;;;;7.47;3.90;;;;;;;;;;5038577;28;20073;-38
2023/07/19 07:10:26;;;;;;;9.40;4.30;;;;;;;;;;5039991;28;20056;-38
2023/07/19 07:12:53;;;;;;;7.38;4.00;;;;;;;;;;5039872;28;20053;-39
2023/07/19 07:15:20;;;;;;;6.35;3.60;;;;;;;;;;5041652;28;20049;-62
2023/07/19 07:17:48;;;;;;;6.72;3.88;;;;;;;;;;5044791;28;20056;-62
2023/07/19 07:20:15;;;;;;;7.07;3.67;;;;;;;;;;5042235;28;20072;-62
2023/07/19 07:22:42;;;;;;;5.50;3.33;;;;;;;;;;5044194;28;20060;-62
2023/07/19 07:25:10;;;;;;;6.57;3.42;;;;;;;;;;5042964;28;20048;-63
2023/07/19 07:27:38;;;;;;;5.20;3.50;;;;;;;;;;5041754;28;20397;-62
2023/07/19 07:30:05;;;;;;;6.38;3.15;;;;;;;;;;5044493;28;20060;-62
2023/07/19 07:32:32;;;;;;;5.70;3.47;;;;;;;;;;5041094;28;20060;-62
2023/07/19 07:34:59;;;;;;;7.28;3.40;;;;;;;;;;5045358;28;20052;-63
2023/07/19 07:37:26;;;;;;;8.23;3.47;;;;;;;;;;5045737;28;20065;-63
2023/07/19 07:39:53;;;;;;;9.68;4.20;;;;;;;;;;5044809;28;20417;-62
2023/07/19 07:42:23;;;;;;;6.22;3.42;;;;;;;;;;5045895;28;20060;-63
2023/07/19 07:44:50;;;;;;;6.18;3.47;;;;;;;;;;5047784;28;20071;-62
2023/07/19 07:47:17;;;;;;;5.47;3.15;;;;;;;;;;5047688;28;20056;-63
2023/07/19 07:49:46;;;;;;;6.97;3.22;;;;;;;;;;5047040;28;20049;-62
2023/07/19 07:52:15;;;;;;;;;;;;;;;;;;5046062;28;20060;-63
2023/07/19 07:54:42;;;;;;;4.20;2.80;;;;;;;;;;5045209;28;19928;-62
2023/07/19 07:57:08;;;;;;;13.50;3.42;;;;;;;;;;5048725;28;20057;-62
2023/07/19 07:59:36;;;;;;;4.75;2.90;;;;;;;;;;5049587;28;20053;-63
2023/07/19 08:02:03;;;;;;;5.18;3.03;;;;;;;;;;5046232;28;20056;-63
2023/07/19 08:04:30;;;;;;;4.53;2.78;;;;;;;;;;5047876;28;20057;-63
2023/07/19 08:06:57;;;;;;;7.20;3.00;;;;;;;;;;5047169;28;20395;-62
2023/07/19 08:09:24;;;;;;;7.70;3.20;;;;;;;;;;5047702;28;20056;-62
2023/07/19 08:11:50;;;;;;;5.20;3.40;;;;;;;;;;5045076;28;20530;-62
2023/07/19 08:14:19;;;;;;;6.82;3.20;;;;;;;;;;5040465;28;20048;-62
2023/07/19 08:16:48;;;;;;;4.75;3.03;;;;;;;;;;5043883;28;20045;-63
2023/07/19 08:19:15;;;;;;;6.82;3.22;;;;;;;;;;5047091;28;20052;-62
2023/07/19 08:21:41;;;;;;;5.38;3.08;;;;;;;;;;5045584;28;20045;-63
2023/07/19 08:24:08;;;;;;;6.38;3.20;;;;;;;;;;5044414;28;20417;-63
2023/07/19 08:26:35;;;;;;;8.60;3.08;;;;;;;;;;5046917;28;20049;-62
2023/07/19 08:29:02;;;;;;;7.28;3.72;;;;;;;;;;5049281;28;20441;-62
2023/07/19 08:31:29;;;;;;;6.40;2.90;;;;;;;;;;5042781;28;20064;-62
2023/07/19 08:33:57;;;;;;;7.22;3.47;;;;;;;;;;5047592;28;20048;-62
2023/07/19 08:36:23;;;;;;;10.52;3.75;;;;;;;;;;5045771;28;20052;-62
2023/07/19 08:38:50;;;;;;;7.10;3.05;;;;;;;;;;5047795;28;20053;-62
2023/07/19 08:41:18;;;;;;;6.18;3.20;;;;;;;;;;5045777;28;20053;-62
2023/07/19 08:43:45;;;;;;;5.70;3.05;;;;;;;;;;5047935;28;20076;-63
2023/07/19 08:46:14;;;;;;;6.15;3.55;;;;;;;;;;5043824;28;20053;-63
2023/07/19 08:48:42;;;;;;;5.60;3.10;;;;;;;;;;5044949;28;20056;-63
2023/07/19 08:51:10;;;;;;;6.53;3.47;;;;;;;;;;5046770;28;20063;-63
2023/07/19 08:53:37;;;;;;;6.75;3.67;;;;;;;;;;5045508;28;20059;-63
2023/07/19 08:56:05;;;;;;;7.05;3.45;;;;;;;;;;5042009;28;20589;-63
2023/07/19 08:58:35;;;;;;;4.18;3.08;;;;;;;;;;5045372;28;20053;-62
2023/07/19 09:01:02;;;;;;;5.30;3.67;;;;;;;;;;5046811;28;20065;-62
2023/07/19 09:03:29;;;;;;;5.88;3.15;;;;;;;;;;5043395;28;20053;-62
2023/07/19 09:05:55;;;;;;;5.82;3.10;;;;;;;;;;5045803;28;20059;-62
2023/07/19 09:08:34;;;;;;;5.13;3.25;;;;;;;;;;5045757;28;20049;-63
2023/07/19 09:11:01;;;;;;;6.30;3.50;;;;;;;;;;5045616;28;20057;-62
2023/07/19 09:13:30;;;;;;;6.05;3.08;;;;;;;;;;5047520;28;20350;-62
2023/07/19 09:15:57;;;;;;;6.55;3.47;;;;;;;;;;5049411;28;20065;-62
2023/07/19 09:18:28;;;;;;;7.05;3.65;;;;;;;;;;5047549;28;20049;-62
2023/07/19 09:20:57;;;;;;;5.75;3.60;;;;;;;;;;5045092;28;20053;-62
2023/07/19 09:23:26;;;;;;;7.10;3.95;;;;;;;;;;5041778;28;20057;-62
2023/07/19 09:25:53;;;;;;;7.33;4.00;;;;;;;;;;5048788;28;20057;-62
2023/07/19 09:28:21;;;;;;;11.32;5.88;;;;;;;;;;5043143;28;20441;-61
2023/07/19 09:30:54;;;;;;;13.55;6.75;;;;;;;;;;5044699;28;20490;-63
2023/07/19 09:33:21;;;;;;;10.55;6.03;;;;;;;;;;5043813;28;20060;-63
2023/07/19 09:35:53;;;;;;;10.18;6.20;;;;;;;;;;5045095;28;20064;-63
2023/07/19 09:38:20;;;;;;;12.82;6.90;;;;;;;;;;5046760;28;20059;-63
2023/07/19 09:40:49;;;;;;;11.70;6.90;;;;;;;;;;5044909;28;20045;-63
2023/07/19 09:43:16;;;;;;;11.35;6.90;;;;;;;;;;5045046;28;20429;-64
2023/07/19 09:45:43;;;;;;;11.55;7.55;;;;;;;;;;5044826;28;20829;-64
2023/07/19 09:48:10;;;;;;;12.02;6.85;;;;;;;;;;5046009;28;20418;-64
2023/07/19 09:50:39;;;;;;;7.78;5.80;;;;;;;;;;5045821;28;20506;-64
2023/07/19 09:53:06;;;;;;;7.75;5.20;;;;;;;;;;5046680;28;20061;-63
2023/07/19 09:55:33;;;;;;;8.50;5.00;;;;;;;;;;5048606;28;20604;-64
2023/07/19 09:58:02;;;;;;;9.35;5.18;;;;;;;;;;5040943;28;20052;-64
2023/07/19 10:00:29;;;;;;;7.25;5.03;;;;;;;;;;5045009;28;20068;-64
2023/07/19 10:02:58;;;;;;;6.65;4.50;;;;;;;;;;5048571;28;20526;-64
2023/07/19 10:05:28;;;;;;;6.47;3.92;;;;;;;;;;5049382;28;20057;-64
2023/07/19 10:08:01;;;;;;;6.63;3.50;;;;;;;;;;5046308;28;20375;-64
2023/07/19 10:10:35;;;;;;;7.35;4.43;;;;;;;;;;5044351;28;20056;-64
2023/07/19 10:13:03;;;;;;;5.88;3.60;;;;;;;;;;5046453;28;20123;-64
2023/07/19 10:15:30;;;;;;;7.45;4.07;;;;;;;;;;5043952;28;20092;-64
2023/07/19 10:17:58;;;;;;;6.25;4.20;;;;;;;;;;5053124;28;20059;-64
2023/07/19 10:20:27;;;;;;;7.90;4.20;;;;;;;;;;5047599;28;20057;-61
2023/07/19 10:22:55;;;;;;;6.47;4.72;;;;;;;;;;5046356;28;20049;-61
2023/07/19 10:25:24;;;;;;;7.85;4.68;;;;;;;;;;5048910;28;20049;-62
2023/07/19 10:28:00;;;;;;;7.97;4.90;;;;;;;;;;5046824;28;20055;-61
2023/07/19 10:30:50;;;;;;;6.60;4.55;;;;;;;;;;5047011;28;20064;-64
2023/07/19 10:33:19;;;;;;;7.43;4.68;;;;;;;;;;5054575;28;20055;-61
2023/07/19 10:35:47;;;;;;;7.78;5.53;;;;;;;;;;5033044;28;20060;-61
2023/07/19 10:38:15;;;;;;;7.88;5.03;;;;;;;;;;5047862;28;20053;-61
2023/07/19 10:40:44;;;;;;;9.27;4.72;;;;;;;;;;5052060;28;20071;-64
2023/07/19 10:43:11;;;;;;;5.15;3.83;;;;;;;;;;5072592;28;20060;-63
2023/07/19 10:45:38;;;;;;;7.03;4.45;;;;;;;;;;5072198;28;20048;-63
2023/07/19 10:48:06;;;;;;;5.40;4.28;;;;;;;;;;5061417;28;20490;-63
2023/07/19 10:50:33;;;;;;;6.72;3.85;;;;;;;;;;5060327;28;20401;-63
2023/07/19 10:53:00;;;;;;;6.35;3.40;;;;;;;;;;5066693;28;20056;-63
2023/07/19 10:55:28;;;;;;;6.22;3.40;;;;;;;;;;5072244;28;20508;-63
2023/07/19 10:57:55;;;;;;;6.53;3.47;;;;;;;;;;5072448;28;20048;-63
2023/07/19 11:00:21;;;;;;;5.20;3.22;;;;;;;;;;5067889;28;20049;-62
2023/07/19 11:02:48;;;;;;;7.68;3.65;;;;;;;;;;5072223;28;20053;-62
2023/07/19 11:05:16;;;;;;;7.45;3.65;;;;;;;;;;5072005;28;20052;-61
2023/07/19 11:07:43;;;;;;;6.82;3.85;;;;;;;;;;5067342;28;20040;-62
2023/07/19 11:10:10;;;;;;;7.20;3.80;;;;;;;;;;5067273;28;20053;-61
2023/07/19 11:12:37;;;;;;;8.10;4.00;;;;;;;;;;5071646;28;20060;-61
2023/07/19 11:15:07;;;;;;;7.70;3.67;;;;;;;;;;5072151;28;20104;-61
2023/07/19 11:17:36;;;;;;;6.00;3.10;;;;;;;;;;5066998;28;20053;-61
2023/07/19 11:20:03;;;;;;;6.13;3.22;;;;;;;;;;5071541;28;20064;-61
2023/07/19 11:22:31;;;;;;;6.93;4.38;;;;;;;;;;5065997;28;20056;-61
2023/07/19 11:24:58;;;;;;;6.30;2.97;;;;;;;;;;5071836;28;20060;-61
2023/07/19 11:27:35;;;;;;;8.50;3.80;;;;;;;;;;5059343;28;20479;-61
2023/07/19 11:30:02;;;;;;;5.25;3.65;;;;;;;;;;5047991;28;20048;-61
2023/07/19 11:32:29;;;;;;;8.40;3.40;;;;;;;;;;5054601;28;20044;-62
2023/07/19 11:34:56;;;;;;;5.05;2.92;;;;;;;;;;5047047;28;20482;-61
2023/07/19 11:37:24;;;;;;;6.20;3.30;;;;;;;;;;5049986;28;20524;-61
2023/07/19 11:39:54;;;;;;;5.80;3.42;;;;;;;;;;5049846;28;20053;-61
2023/07/19 11:42:38;;;;;;;4.68;2.95;;;;;;;;;;5047936;28;20053;-61
2023/07/19 11:45:08;;;;;;;4.18;2.75;;;;;;;;;;5049835;28;20057;-60
2023/07/19 11:47:35;;;;;;;6.13;3.30;;;;;;;;;;5049426;28;20041;-61
2023/07/19 11:50:03;;;;;;;4.07;2.95;;;;;;;;;;5047354;28;20058;-60
2023/07/19 11:52:30;;;;;;;6.35;3.28;;;;;;;;;;5051398;28;20071;-61
2023/07/19 11:54:58;;;;;;;5.05;2.85;;;;;;;;;;5047606;28;20045;-61
2023/07/19 11:57:24;;;;;;;9.32;3.20;;;;;;;;;;5044884;28;20049;-64
2023/07/19 11:59:51;;;;;;;5.13;3.05;;;;;;;;;;5044630;28;20056;-64
2023/07/19 12:02:18;;;;;;;6.15;2.83;;;;;;;;;;5042659;28;20508;-64
2023/07/19 12:04:45;;;;;;;5.28;2.55;;;;;;;;;;5047891;28;20390;-63
2023/07/19 12:07:12;;;;;;;6.70;3.78;;;;;;;;;;5048837;28;20083;-64
2023/07/19 12:09:38;;;;;;;7.00;3.08;;;;;;;;;;5050213;28;20052;-64
2023/07/19 12:12:09;;;;;;;6.90;3.10;;;;;;;;;;5048243;28;20049;-64
2023/07/19 12:14:36;;;;;;;5.25;2.95;;;;;;;;;;5046702;28;20486;-64
2023/07/19 12:17:04;;;;;;;5.60;2.90;;;;;;;;;;5046850;28;20422;-64
2023/07/19 12:19:30;;;;;;;9.45;3.20;;;;;;;;;;5054293;28;20053;-64
2023/07/19 12:21:57;;;;;;;5.90;3.03;;;;;;;;;;5046198;28;20049;-64
2023/07/19 12:24:24;;;;;;;5.65;2.72;;;;;;;;;;5055932;28;20057;-64
2023/07/19 12:26:51;;;;;;;5.40;2.92;;;;;;;;;;5047631;28;20057;-64
2023/07/19 12:29:19;;;;;;;6.40;2.65;;;;;;;;;;5052363;28;20049;-64
2023/07/19 12:31:46;;;;;;;6.65;2.75;;;;;;;;;;5045408;28;20386;-64
2023/07/19 12:34:13;;;;;;;6.25;2.90;;;;;;;;;;5053088;28;20059;-64
2023/07/19 12:36:40;;;;;;;5.65;3.00;;;;;;;;;;5049484;28;20513;-64
2023/07/19 12:39:07;;;;;;;4.88;2.65;;;;;;;;;;5056648;28;20044;-64
2023/07/19 12:41:33;;;;;;;5.10;3.22;;;;;;;;;;5050480;28;20041;-64
2023/07/19 12:44:00;;;;;;;4.13;2.53;;;;;;;;;;5054627;28;20049;-64
2023/07/19 12:46:29;;;;;;;5.20;2.83;;;;;;;;;;5045756;28;20053;-64
2023/07/19 12:48:55;;;;;;;5.28;2.78;;;;;;;;;;5057051;28;20401;-64
2023/07/19 12:51:22;;;;;;;4.10;2.60;;;;;;;;;;5051669;28;20057;-64
2023/07/19 12:53:49;;;;;;;4.47;2.47;;;;;;;;;;5056472;28;20048;-64
2023/07/19 12:56:16;;;;;;;4.28;2.60;;;;;;;;;;5048900;28;20056;-65
2023/07/19 12:58:43;;;;;;;3.58;2.50;;;;;;;;;;5052846;28;20448;-64
2023/07/19 13:01:12;;;;;;;5.38;2.45;;;;;;;;;;5050750;28;20522;-65
2023/07/19 13:06:36;;;;;;;4.45;2.40;;;;;;;;;;5047083;28;20041;-64
2023/07/19 13:09:03;;;;;;;5.68;3.10;;;;;;;;;;5050931;28;20052;-65
2023/07/19 13:11:30;;;;;;;4.03;2.30;;;;;;;;;;5051733;28;20044;-65
2023/07/19 13:13:58;;;;;;;5.97;2.45;;;;;;;;;;5050846;28;20049;-65
2023/07/19 13:16:25;;;;;;;4.35;2.47;;;;;;;;;;5049857;28;20393;-65
2023/07/19 13:19:01;;;;;;;5.68;2.65;;;;;;;;;;5051798;28;20060;-62
2023/07/19 13:21:28;;;;;;;5.53;2.45;;;;;;;;;;5052789;28;20060;-65
2023/07/19 13:23:56;;;;;;;4.20;2.50;;;;;;;;;;5050325;28;20053;-65
2023/07/19 13:26:23;;;;;;;4.93;2.80;;;;;;;;;;5058317;28;20401;-65
2023/07/19 13:28:50;;;;;;;5.85;2.58;;;;;;;;;;5046653;28;20048;-65
2023/07/19 13:31:17;;;;;;;4.93;2.30;;;;;;;;;;5052740;28;20403;-64
2023/07/19 13:33:44;;;;;;;4.20;1.92;;;;;;;;;;5053630;28;20053;-65
2023/07/19 13:36:11;;;;;;;5.35;2.03;;;;;;;;;;5052221;28;20053;-65
2023/07/19 13:38:38;;;;;;;4.80;2.08;;;;;;;;;;5048677;28;20057;-65
2023/07/19 13:41:06;;;;;;;6.70;2.20;;;;;;;;;;5056522;28;20049;-65
2023/07/19 13:43:33;;;;;;;4.85;2.20;;;;;;;;;;5049671;28;20497;-65
2023/07/19 13:46:01;;;;;;;4.50;2.33;;;;;;;;;;5047269;28;20099;-64
2023/07/19 13:48:27;;;;;;;4.45;2.10;;;;;;;;;;5049777;28;20056;-64
2023/07/19 13:50:57;;;;;;;4.07;2.00;;;;;;;;;;5047980;28;20052;-64
2023/07/19 13:53:24;;;;;;;5.05;1.92;;;;;;;;;;5048739;28;20049;-64
2023/07/19 13:55:51;;;;;;;7.13;2.40;;;;;;;;;;5060389;28;20056;-64
2023/07/19 13:58:19;;;;;;;5.05;2.50;;;;;;;;;;5055894;28;20052;-64
2023/07/19 14:00:46;;;;;;;6.50;2.20;;;;;;;;;;5047974;28;20120;-65
2023/07/19 14:03:13;;;;;;;3.60;2.08;;;;;;;;;;5047969;28;20056;-65
2023/07/19 14:05:40;;;;;;;3.78;2.03;;;;;;;;;;5054491;28;20053;-64
2023/07/19 14:08:06;;;;;;;5.03;2.15;;;;;;;;;;5050326;28;20061;-64
2023/07/19 14:10:33;;;;;;;3.90;2.10;;;;;;;;;;5048535;28;20508;-64
2023/07/19 14:13:00;;;;;;;2.50;1.80;;;;;;;;;;5050136;28;20057;-64
2023/07/19 14:15:28;;;;;;;3.30;1.70;;;;;;;;;;5049113;28;20059;-65
2023/07/19 14:17:55;;;;;;;4.13;1.90;;;;;;;;;;5049810;28;20490;-64
2023/07/19 14:20:23;;;;;;;2.65;1.95;;;;;;;;;;5046309;28;20105;-65
2023/07/19 14:22:50;;;;;;;4.00;1.95;;;;;;;;;;5052007;28;20063;-64
2023/07/19 14:25:17;;;;;;;6.15;1.90;;;;;;;;;;5055916;28;20048;-64
2023/07/19 14:27:44;;;;;;;4.50;1.48;;;;;;;;;;5048145;28;20052;-64
2023/07/19 14:30:11;;;;;;;4.55;1.75;;;;;;;;;;5049916;28;20049;-64
2023/07/19 14:32:39;;;;;;;2.63;1.90;;;;;;;;;;5048122;28;20049;-61
2023/07/19 14:35:06;;;;;;;4.47;1.80;;;;;;;;;;5048489;28;20053;-61
2023/07/19 14:37:33;;;;;;;3.22;1.85;;;;;;;;;;5048987;28;20064;-60
2023/07/19 14:40:00;;;;;;;4.38;1.92;;;;;;;;;;5051219;28;20351;-64
2023/07/19 14:42:27;;;;;;;3.95;1.83;;;;;;;;;;5046157;28;20379;-64
2023/07/19 14:44:57;;;;;;;2.78;1.70;;;;;;;;;;5042173;28;20053;-65
2023/07/19 14:47:24;;;;;;;3.30;1.90;;;;;;;;;;5042954;28;20048;-61